Hildesheim, Germany

11:31 AM CET on November 22, 2014 (GMT +0100)
Hildesheim | Change Station
CLOSE
Current Station
Personal Weather Station
Location: Harsum, NIEDERSACHSEN
Elevation: 262 ft
Nearby Weather Stations

Elev 262 ft 52.21 °N, 9.97 °E | Updated 1 minute ago

Clear
Clear
44.1 °F
Feels Like 44 °F
N
2.4
Wind Variable Wind from SE
Gusts 9.0 mph

Today
High -- | Low -- °F
--% Chance of Precip.
Yesterday
High -- | Low -- °F
Precip. -- in
7:52 AM 4:19 PM
Waning Crescent, 0% visible
Pressure 30.15 in
Visibility -9999.0 miles
Clouds
Windchill 44 °F
Dew Point 41 °F
Humidity 88%
Rainfall 0.00 in
Snow Depth Not available.
UV 0.7 out of 12
Pollen Not available.
Air Quality Not available.
Flu Activity Not available.
METAR EDDV 221020Z 11010KT CAVOK 06/03 Q1021 NOSIG

More Conditions Fewer Conditions

Pressure 30.15 in
Visibility -9999.0 miles
Clouds
Windchill 44 °F
Dew Point 41 °F
Humidity 88%
Rainfall 0.00 in
Snow Depth Not available.
UV 0.7 out of 12
Pollen Not available.
Air Quality Not available.
Flu Activity Not available.
METAR EDDV 221020Z 11010KT CAVOK 06/03 Q1021 NOSIG

More Conditions Fewer Conditions

10-Day Weather Forecast

Almanac

Astronomy

Nov. 22, 2014 Rise Set
Actual Time
Civil Twilight
Nautical Twilight
Astronomical Twilight
Moon
Length of Visible Light
Length of Day
Tomorrow will be .
, % of the Moon is Illuminated

Today's Extremes

Country Highs Country Lows

Community

WunderPhotos

Upload Photos

1,772,799 photos uploaded!

WunderBlogs® & News

Nearby

Air Quality

  Air Quality AQ Index Pollutant
Not available.

Snow Depth

Station Depth Elevation

Earthquake Activity

City Distance Mag. Time & Date
Minimum magnitude displayed is 2.5.

Coastal Water Temperatures

Place Temperature

Nearby Weather Stations